Flight Track Log - Related Links

Times and Time Zones

All times are in EDT time to prevent confusion due to time zone crossing. See the 9Y-LGW flight status page for this flight to view local times or setup timezone preferences in your user account.

Time Position Orientation Groundspeed Altitude Reporting Facility
EDT Latitude Longitude Course Direction KTS MPH feet Rate Location/Type
Sun 03:59:00 PM 7.0435 -58.6194 326° Northwest  Level FlightAware Approximate
Sun 04:00:00 PM 7.1525 -58.6926 326° Northwest  Level FlightAware Approximate
Sun 04:01:00 PM 7.2614 -58.7658 326° Northwest  Level FlightAware Approximate
Sun 04:02:00 PM 7.3704 -58.8390 326° Northwest  Level FlightAware Approximate
Sun 04:03:00 PM 7.4793 -58.9123 326° Northwest  Level FlightAware Approximate
Sun 04:04:00 PM 7.5882 -58.9856 326° Northwest  Level FlightAware Approximate
Sun 04:05:00 PM 7.6971 -59.0589 326° Northwest  Level FlightAware Approximate
Sun 04:06:00 PM 7.7934 -59.1241 326° Northwest  Level FlightAware Approximate
Sun 04:07:00 PM 7.9021 -59.1979 326° Northwest  Level FlightAware Approximate
Sun 04:08:00 PM 8.0107 -59.2717 326° Northwest  Level FlightAware Approximate
Sun 04:09:00 PM 8.1193 -59.3456 326° Northwest  Level FlightAware Approximate
Sun 04:10:00 PM 8.2279 -59.4195 326° Northwest  Level FlightAware Approximate
Sun 04:11:00 PM 8.3364 -59.4934 326° Northwest  Level FlightAware Approximate
Sun 04:12:00 PM 8.4450 -59.5674 326° Northwest  Level FlightAware Approximate
Sun 04:13:00 PM 8.5536 -59.6414 326° Northwest  Level FlightAware Approximate
Sun 04:14:00 PM 8.6621 -59.7155 326° Northwest  Level FlightAware Approximate
Sun 04:15:00 PM 8.7706 -59.7896 326° Northwest  Level FlightAware Approximate
Sun 04:16:00 PM 8.8791 -59.8638 326° Northwest  Level FlightAware Approximate
Sun 04:17:00 PM 8.9871 -59.9387 326° Northwest  Level FlightAware Approximate
Sun 04:18:00 PM 9.0951 -60.0137 326° Northwest  Level FlightAware Approximate
Sun 04:19:00 PM 9.2031 -60.0887 326° Northwest  Level FlightAware Approximate
Sun 04:20:00 PM 9.3110 -60.1638 326° Northwest  Level FlightAware Approximate
Sun 04:21:00 PM 9.4189 -60.2389 326° Northwest  Level FlightAware Approximate
Sun 04:22:00 PM 9.5268 -60.3141 326° Northwest  Level FlightAware Approximate
Sun 04:23:00 PM 9.6347 -60.3894 325° Northwest  Level FlightAware Approximate
Sun 04:24:00 PM 9.7433 -60.4636 326° Northwest  Level FlightAware Approximate
Sun 04:25:00 PM 9.8519 -60.5378 326° Northwest  Level FlightAware Approximate
Sun 04:26:00 PM 9.9606 -60.6120 326° Northwest  Level FlightAware Approximate
Sun 04:27:00 PM 10.0692 -60.6862 326° Northwest  Level FlightAware Approximate
Sun 04:28:00 PM 10.1778 -60.7605 326° Northwest  Level FlightAware Approximate
Sun 04:29:00 PM 10.2864 -60.8349 326° Northwest  Level FlightAware Approximate
Sun 04:30:00 PM 10.3949 -60.9093 326° Northwest  Level FlightAware Approximate
Sun 04:31:00 PM 10.5035 -60.9837 326° Northwest  Level FlightAware Approximate
Sun 04:32:00 PM 10.6120 -61.0582 326° Northwest  Level FlightAware Approximate
Sun 04:33:00 PM 10.7205 -61.1328 326° Northwest  Level FlightAware Approximate
Sun 04:34:00 PM 10.8290 -61.2074 326° Northwest  Level FlightAware Approximate
Sun 04:35:00 PM 10.9375 -61.2821 326° Northwest  Level FlightAware Approximate
Sun 04:36:00 PM 11.0460 -61.3568 326° Northwest  Level FlightAware Approximate
Sun 04:37:00 PM 11.1544 -61.4315 326° Northwest  Level FlightAware Approximate
Sun 04:38:00 PM 11.2628 -61.5064 326° Northwest  Level FlightAware Approximate
Sun 04:39:00 PM 11.3712 -61.5812 326° Northwest  Level FlightAware Approximate
Sun 04:40:00 PM 11.4796 -61.6562 326° Northwest  Level FlightAware Approximate
Sun 04:41:00 PM 11.5880 -61.7312 326° Northwest  Level FlightAware Approximate
Sun 04:42:00 PM 11.6964 -61.8063 326° Northwest  Level FlightAware Approximate
Sun 04:43:00 PM 11.8047 -61.8814 326° Northwest  Level FlightAware Approximate
Sun 04:44:00 PM 11.9130 -61.9565 326° Northwest  Level FlightAware Approximate
Sun 04:45:00 PM 12.0213 -62.0318 326° Northwest  Level FlightAware Approximate
Sun 04:46:00 PM 12.1295 -62.1071 326° Northwest  Level FlightAware Approximate
Sun 04:47:00 PM 12.2378 -62.1824 326° Northwest  Level FlightAware Approximate
Sun 04:48:00 PM 12.3460 -62.2579 326° Northwest  Level FlightAware Approximate
Sun 04:49:00 PM 12.4542 -62.3333 326° Northwest  Level FlightAware Approximate
Sun 04:50:00 PM 12.5624 -62.4089 326° Northwest  Level FlightAware Approximate
Sun 04:51:00 PM 12.6706 -62.4845 326° Northwest  Level FlightAware Approximate
Sun 04:52:00 PM 12.7787 -62.5602 326° Northwest  Level FlightAware Approximate
Sun 04:53:00 PM 12.8869 -62.6359 326° Northwest  Level FlightAware Approximate
Sun 04:54:00 PM 12.9882 -62.7070 326° Northwest  Level FlightAware Approximate
Sun 04:55:00 PM 13.0896 -62.7782 326° Northwest  Level FlightAware Approximate
Sun 04:56:00 PM 13.1910 -62.8494 326° Northwest  Level FlightAware Approximate
Sun 04:57:00 PM 13.2923 -62.9207 326° Northwest  Level FlightAware Approximate
Sun 04:58:00 PM 13.3937 -62.9920 326° Northwest  Level FlightAware Approximate
Sun 04:59:00 PM 13.4950 -63.0634 326° Northwest  Level FlightAware Approximate
Sun 05:00:00 PM 13.5962 -63.1349 326° Northwest  Level FlightAware Approximate
Sun 05:01:00 PM 13.6975 -63.2064 326° Northwest  Level FlightAware Approximate
Sun 05:02:00 PM 13.7987 -63.2780 326° Northwest  Level FlightAware Approximate
Sun 05:03:00 PM 13.9000 -63.3496 326° Northwest  Level FlightAware Approximate
Sun 05:04:00 PM 14.0012 -63.4213 325° Northwest  Level FlightAware Approximate
Sun 05:05:00 PM 14.1024 -63.4931 325° Northwest  Level FlightAware Approximate
Sun 05:06:00 PM 14.2035 -63.5649 325° Northwest  Level FlightAware Approximate
Sun 05:07:00 PM 14.3047 -63.6368 325° Northwest  Level FlightAware Approximate
Sun 05:08:00 PM 14.4058 -63.7088 325° Northwest  Level FlightAware Approximate
Sun 05:09:00 PM 14.5069 -63.7808 325° Northwest  Level FlightAware Approximate
Sun 05:10:00 PM 14.6079 -63.8529 325° Northwest  Level FlightAware Approximate
Sun 05:11:00 PM 14.7090 -63.9250 325° Northwest  Level FlightAware Approximate
Sun 05:12:00 PM 14.8100 -63.9973 325° Northwest  Level FlightAware Approximate
Sun 05:13:00 PM 14.9110 -64.0696 325° Northwest  Level FlightAware Approximate
Sun 05:14:00 PM 15.0105 -64.1439 316° Northwest  Level FlightAware Approximate
Sun 05:15:00 PM 15.1150 -64.2099 327° Northwest  Level FlightAware Approximate
Sun 05:16:00 PM 15.2183 -64.2787 327° Northwest  Level FlightAware Approximate
Sun 05:17:00 PM 15.3216 -64.3476 327° Northwest  Level FlightAware Approximate
Sun 05:18:00 PM 15.4249 -64.4166 327° Northwest  Level FlightAware Approximate
Sun 05:19:00 PM 15.5293 -64.4837 329° Northwest  Level FlightAware Approximate
Sun 05:19:05 PM 15.0167 -64.1333 328° Northwest 430 495 34,000  Level San Juan Center
Sun 05:20:00 PM 15.6340 -64.5504 329° Northwest  Level FlightAware Approximate
Sun 05:20:05 PM 15.1167 -64.2000 327° Northwest 440 506 34,000  Level San Juan Center
Sun 05:21:00 PM 15.7387 -64.6171 328° Northwest  Level FlightAware Approximate
Sun 05:21:06 PM 15.2333 -64.2667 331° Northwest 440 506 34,000  Level San Juan Center
Sun 05:22:00 PM 15.8433 -64.6838 328° Northwest  Level FlightAware Approximate
Sun 05:22:06 PM 15.3333 -64.3333 327° Northwest 440 506 34,000  Level San Juan Center
Sun 05:23:00 PM 15.9480 -64.7507 328° Northwest  Level FlightAware Approximate
Sun 05:23:06 PM 15.4333 -64.4167 321° Northwest 440 506 34,000  Level San Juan Center
Sun 05:24:00 PM 16.0526 -64.8176 328° Northwest  Level FlightAware Approximate
Sun 05:24:06 PM 15.5333 -64.4833 327° Northwest 430 495 34,000  Level San Juan Center
Sun 05:25:07 PM 15.6333 -64.5500 327° Northwest 440 506 34,000  Level San Juan Center
Sun 05:26:07 PM 15.7500 -64.6167 331° Northwest 440 506 34,000  Level San Juan Center
Sun 05:27:08 PM 15.8500 -64.6833 327° Northwest 440 506 34,000  Level San Juan Center
Sun 05:28:08 PM 15.9500 -64.7667 321° Northwest 450 518 34,000  Level San Juan Center
Sun 05:29:08 PM 16.0500 -64.8500 321° Northwest 460 529 34,000  Level San Juan Center
Sun 05:30:08 PM 16.1667 -64.9167 331° Northwest 440 506 34,000  Level San Juan Center
Sun 05:31:09 PM 16.2667 -64.9833 327° Northwest 440 506 34,000  Level San Juan Center
Sun 05:32:09 PM 16.3667 -65.0500 327° Northwest 450 518 34,000  Level San Juan Center
Sun 05:33:09 PM 16.4667 -65.1167 327° Northwest 440 506 34,000  Level San Juan Center
Sun 05:34:10 PM 16.5667 -65.1833 327° Northwest 440 506 34,000  Level San Juan Center
Sun 05:35:10 PM 16.6833 -65.2333 338° Northwest 440 506 34,000  Level San Juan Center
Sun 05:36:10 PM 16.7833 -65.3167 321° Northwest 440 506 34,000  Level San Juan Center
Sun 05:37:11 PM 16.8833 -65.3833 327° Northwest 450 518 34,000  Level San Juan Center
Sun 05:38:11 PM 16.9833 -65.4500 327° Northwest 450 518 34,000  Level San Juan Center
Sun 05:39:11 PM 17.1000 -65.5167 331° Northwest 440 506 34,000  Level San Juan Center
Sun 05:40:12 PM 17.2000 -65.6000 321° Northwest 450 518 34,000  Level San Juan Center
Sun 05:41:12 PM 17.3167 -65.6833 326° Northwest 440 506 34,000  Level San Juan Center
Sun 05:42:12 PM 17.4000 -65.7333 330° Northwest 430 495 34,000  Level San Juan Center
Sun 05:43:12 PM 17.5167 -65.8000 331° Northwest 430 495 34,000  Level San Juan Center
Sun 05:44:13 PM 17.6333 -65.9000 321° Northwest 470 541 34,000  Level San Juan Center
Sun 05:45:13 PM 17.7333 -65.9667 328° Northwest 450 518 34,000  Level San Juan Center
Sun 05:46:13 PM 17.8333 -66.0167 335° Northwest 410 472 34,000  Level San Juan Center
Sun 05:47:14 PM 17.9333 -66.1000 322° Northwest 440 506 34,000  Level San Juan Center
Sun 05:48:14 PM 18.0333 -66.1667 328° Northwest 450 518 34,000  Level San Juan Center
Sun 05:49:14 PM 18.1500 -66.2500 326° Northwest 460 529 34,000  Level San Juan Center
Sun 05:50:14 PM 18.2667 -66.3167 332° Northwest 450 518 34,000  Level San Juan Center
Sun 05:51:15 PM 18.3667 -66.4000 322° Northwest 450 518 34,000  Level San Juan Center
Sun 05:52:15 PM 18.4667 -66.4667 328° Northwest 450 518 34,000  Level San Juan Center
Sun 05:53:15 PM 18.5667 -66.5333 328° Northwest 450 518 34,000  Level San Juan Center
Sun 05:54:16 PM 18.6833 -66.6000 332° Northwest 450 518 34,000  Level San Juan Center
Sun 05:55:16 PM 18.7833 -66.6833 322° Northwest 450 518 34,000  Level San Juan Center
Sun 05:56:16 PM 18.9000 -66.7500 332° Northwest 450 518 34,000  Level San Juan Center
Sun 05:57:17 PM 19.0000 -66.8333 322° Northwest 450 518 34,000  Level San Juan Center
Sun 05:58:17 PM 19.1000 -66.9000 328° Northwest 450 518 34,000  Level San Juan Center
Sun 05:59:17 PM 19.2000 -66.9667 328° Northwest 460 529 34,000  Level San Juan Center
Sun 06:00:18 PM 19.3000 -67.0333 328° Northwest 430 495 34,000  Level San Juan Center
Sun 06:01:18 PM 19.4000 -67.1167 322° Northwest 440 506 34,000  Level San Juan Center
Sun 06:02:18 PM 19.5000 -67.1833 328° Northwest 440 506 34,000  Level San Juan Center
Sun 06:03:19 PM 19.6000 -67.2500 328° Northwest 440 506 34,000  Level San Juan Center
Sun 06:04:19 PM 19.7000 -67.3167 328° Northwest 430 495 34,000  Level San Juan Center
Sun 06:05:19 PM 19.8000 -67.4000 322° Northwest 440 506 34,000  Level San Juan Center
Sun 06:06:20 PM 19.9167 -67.4667 332° Northwest 430 495 34,000  Level San Juan Center
Sun 06:07:19 PM 20.0167 -67.5333 328° Northwest 430 495 34,000  Level San Juan Center
Sun 06:08:20 PM 20.1167 -67.6000 328° Northwest 430 495 34,000  Level San Juan Center
Sun 06:09:20 PM 20.2167 -67.6833 322° Northwest 440 506 34,000  Level San Juan Center
Sun 06:11:22 PM 20.4278 -67.8450 324° Northwest 440 506 34,000  Level Miami Center
Sun 06:12:22 PM 20.5158 -67.9319 317° Northwest 440 506 34,000  Level Miami Center
Sun 06:13:22 PM 20.6047 -68.0300 314° West 440 506 34,000  Level Miami Center
Sun 06:14:22 PM 20.6872 -68.1286 312° West 450 518 34,000  Level Miami Center
Sun 06:15:22 PM 20.7739 -68.2228 315° West 450 518 34,000  Level Miami Center
Sun 06:16:22 PM 20.8583 -68.3214 313° West 450 518 34,000  Level Miami Center
Sun 06:17:22 PM 20.9386 -68.4161 312° West 444 511 34,000  Level Miami Center
Sun 06:18:22 PM 21.0231 -68.5150 312° West 444 511 34,000 650 Level Miami Center
Sun 06:19:22 PM 21.1031 -68.6122 311° West 444 511 35,300 1,000 Climbing Miami Center
Sun 06:20:22 PM 21.1872 -68.7047 314° West 444 511 36,000 350 Climbing Miami Center
Sun 06:21:22 PM 21.2653 -68.8000 311° West 439 505 36,000  Level Miami Center
Sun 06:22:22 PM 21.3472 -68.8931 313° West 439 505 36,000  Level Miami Center
Sun 06:23:22 PM 21.4292 -68.9883 313° West 439 505 36,000  Level Miami Center
Sun 06:24:22 PM 21.5047 -69.0839 310° West 434 499 36,000  Level Miami Center
Sun 06:25:22 PM 21.5867 -69.1772 313° West 434 499 36,000  Level Miami Center
Sun 06:26:22 PM 21.6725 -69.2725 314° West 439 505 36,000  Level Miami Center
Sun 06:27:22 PM 21.7461 -69.3689 309° West 439 505 36,000  Level Miami Center
Sun 06:28:22 PM 21.8300 -69.4622 314° West 439 505 36,000  Level Miami Center
Sun 06:29:22 PM 21.9094 -69.5583 312° West 439 505 36,000  Level Miami Center
Sun 06:30:22 PM 21.9914 -69.6544 313° West 439 505 36,000  Level Miami Center
Sun 06:31:22 PM 22.0728 -69.7483 313° West 439 505 36,000  Level Miami Center
Sun 06:32:22 PM 22.1525 -69.8447 312° West 439 505 36,000  Level Miami Center
Sun 06:33:22 PM 22.2336 -69.9369 314° West 439 505 36,000  Level Miami Center
Sun 06:34:22 PM 22.3111 -70.0336 311° West 433 498 36,000  Level Miami Center
Sun 06:35:22 PM 22.3969 -70.1322 313° West 433 498 36,000  Level Miami Center
Sun 06:36:22 PM 22.4739 -70.2269 311° West 433 498 36,000  Level Miami Center
Sun 06:37:22 PM 22.5492 -70.3219 311° West 433 498 36,000  Level Miami Center
Sun 06:38:22 PM 22.6264 -70.4214 310° West 433 498 36,000  Level Miami Center
Sun 06:39:22 PM 22.7033 -70.5189 311° West 433 498 36,000  Level Miami Center
Sun 06:40:22 PM 22.7828 -70.6161 312° West 433 498 36,000  Level Miami Center
Sun 06:41:22 PM 22.8594 -70.7072 312° West 427 491 36,000  Level Miami Center
Sun 06:42:22 PM 22.9364 -70.8047 311° West 427 491 36,000  Level Miami Center
Sun 06:43:22 PM 23.0156 -70.9047 311° West 427 491 36,000  Level Miami Center
Sun 06:44:22 PM 23.0922 -70.9983 312° West 427 491 36,000  Level Miami Center
Sun 06:45:22 PM 23.1711 -71.0939 312° West 427 491 36,000  Level Miami Center
Sun 06:46:22 PM 23.2475 -71.1831 313° West 418 481 36,000  Level Miami Center
Sun 06:47:22 PM 23.3264 -71.2836 311° West 418 481 36,000  Level Miami Center
Sun 06:48:22 PM 23.4050 -71.3797 312° West 418 481 36,000  Level Miami Center
Sun 06:49:22 PM 23.4817 -71.4758 311° West 418 481 36,000  Level Miami Center
Sun 06:50:22 PM 23.5583 -71.5769 310° West 423 487 36,000  Level Miami Center
Sun 06:51:22 PM 23.6369 -71.6733 312° West 423 487 36,000  Level Miami Center
Sun 06:52:22 PM 23.7133 -71.7722 310° West 423 487 36,000  Level Miami Center
Sun 06:53:22 PM 23.7936 -71.8642 314° West 422 486 36,000  Level Miami Center
Sun 06:54:22 PM 23.8700 -71.9633 310° West 427 491 36,000  Level Miami Center
Sun 06:55:22 PM 23.9483 -72.0625 311° West 427 491 36,000  Level Miami Center
Sun 06:56:22 PM 24.0247 -72.1597 311° West 432 497 36,000  Level Miami Center
Sun 06:57:22 PM 24.1028 -72.2567 311° West 427 491 36,000  Level Miami Center
Sun 06:58:22 PM 24.1792 -72.3586 309° West 427 491 36,000  Level Miami Center
Sun 06:59:22 PM 24.2572 -72.4539 312° West 427 491 36,000  Level Miami Center
Sun 07:00:22 PM 24.3228 -72.5542 306° West 427 491 36,000  Level Miami Center
Sun 07:01:22 PM 24.4028 -72.6517 312° West 426 490 36,000  Level Miami Center
Sun 07:02:22 PM 24.4786 -72.7494 310° West 421 484 36,000  Level Miami Center
Sun 07:03:22 PM 24.5608 -72.8494 312° West 420 483 36,000  Level Miami Center
Sun 07:04:22 PM 24.6408 -72.9497 311° West 422 486 36,000  Level Miami Center
Sun 07:05:22 PM 24.7122 -73.0436 310° West 417 480 36,000  Level Miami Center
Sun 07:06:22 PM 24.7856 -73.1419 309° West 417 480 36,000  Level Miami Center
Sun 07:07:22 PM 24.8633 -73.2425 310° West 417 480 36,000  Level Miami Center
Sun 07:08:22 PM 24.9389 -73.3411 310° West 417 480 36,000  Level Miami Center
Sun 07:09:22 PM 25.0122 -73.4375 310° West 417 480 36,000  Level Miami Center
Sun 07:10:22 PM 25.0875 -73.5364 310° West 417 480 36,000  Level Miami Center
Sun 07:11:22 PM 25.1628 -73.6353 310° West 417 480 36,000  Level Miami Center
Sun 07:12:22 PM 25.2358 -73.7300 310° West 417 480 36,000  Level Miami Center
Sun 07:13:22 PM 25.3133 -73.8358 309° West 422 486 36,000  Level Miami Center
Sun 07:14:22 PM 25.3842 -73.9283 310° West 417 480 36,000  Level Miami Center
Sun 07:15:22 PM 25.4636 -74.0300 311° West 417 480 36,000  Level Miami Center
Sun 07:16:22 PM 25.5364 -74.1250 310° West 417 480 36,000  Level Miami Center
Sun 07:17:22 PM 25.6114 -74.2269 309° West 417 480 36,000  Level Miami Center
Sun 07:18:22 PM 25.6861 -74.3244 310° West 417 480 36,000  Level Miami Center
Sun 07:19:22 PM 25.7611 -74.4267 309° West 417 480 36,000  Level Miami Center
Sun 07:20:22 PM 25.8400 -74.5292 311° West 422 486 36,000  Level Miami Center
Sun 07:21:22 PM 25.9106 -74.6269 309° West 416 479 36,000  Level Miami Center
Sun 07:22:22 PM 25.9914 -74.7272 312° West 423 487 36,000  Level Miami Center
Sun 07:23:22 PM 26.0744 -74.8322 311° West 436 502 36,000  Level Miami Center
Sun 07:24:22 PM 26.1447 -74.9306 309° West 414 476 36,000  Level Miami Center
Sun 07:25:22 PM 26.2106 -75.0267 307° West 404 465 36,000  Level Miami Center
Sun 07:26:22 PM 26.2850 -75.1253 310° West 409 471 36,000  Level Miami Center
Sun 07:27:22 PM 26.3592 -75.2239 310° West 420 483 36,000  Level Miami Center
Sun 07:28:22 PM 26.4314 -75.3247 309° West 420 483 36,000  Level Miami Center
Sun 07:29:22 PM 26.5097 -75.4189 313° West 412 474 36,000 350 Level Miami Center
Sun 07:30:22 PM 26.5794 -75.5064 312° West 407 468 36,700 500 Climbing Miami Center
Sun 07:31:22 PM 26.6492 -75.5939 312° West 406 467 37,000 150 Climbing Miami Center
Sun 07:32:22 PM 26.7294 -75.6978 311° West 412 474 37,000  Level Miami Center
Sun 07:33:22 PM 26.8011 -75.7878 312° West 406 467 37,000  Level Miami Center
Sun 07:34:22 PM 26.8772 -75.8897 310° West 413 475 37,000  Level Miami Center
Sun 07:35:22 PM 26.9467 -75.9869 309° West 413 475 37,000  Level Miami Center
Sun 07:36:22 PM 27.0203 -76.0819 311° West 408 470 37,000  Level Miami Center
Sun 07:37:22 PM 27.0897 -76.1794 309° West 404 465 37,000  Level Miami Center
Sun 07:38:22 PM 27.1653 -76.2772 311° West 411 473 37,000  Level Miami Center
Sun 07:39:22 PM 27.2389 -76.3889 307° West 435 501 37,000  Level Miami Center
Sun 07:40:22 PM 27.3081 -76.4800 311° West 407 468 37,000  Level Miami Center
Sun 07:41:22 PM 27.3772 -76.5778 309° West 407 468 37,000  Level Miami Center
Sun 07:42:22 PM 27.4506 -76.6831 308° West 401 461 37,000  Level Miami Center
Sun 07:43:22 PM 27.5153 -76.7625 313° West 389 448 37,000  Level Miami Center
Sun 07:44:22 PM 27.6156 -76.8306 329° Northwest 393 452 37,000  Level Miami Center
Sun 07:45:22 PM 27.7367 -76.8633 347° North 411 473 37,000  Level Miami Center
Sun 07:46:22 PM 27.8642 -76.8797 354° North 416 479 37,000  Level Miami Center
Sun 07:47:22 PM 27.9789 -76.8914 355° North 436 502 37,000  Level Miami Center
Sun 07:48:22 PM 28.1000 -76.9103 352° North 458 527 37,000  Level Miami Center
Sun 07:49:22 PM 28.2378 -76.9622 342° North 453 521 37,000  Level Miami Center
Sun 07:50:22 PM 28.3653 -76.9883 350° North 453 521 37,000  Level Miami Center
Sun 07:51:22 PM 28.4903 -77.0119 351° North 446 513 37,000  Level Miami Center
Sun 07:52:22 PM 28.6239 -77.0406 349° North 450 518 37,000  Level Miami Center
Sun 07:53:22 PM 28.7303 -77.0622 350° North 447 514 37,000  Level Miami Center
Sun 07:54:22 PM 28.8578 -77.0883 350° North 450 518 37,000 -50 Level Miami Center
Sun 07:55:22 PM 28.9911 -77.1147 350° North 439 505 36,900  Descending Miami Center
Sun 07:56:22 PM 29.1081 -77.1364 351° North 453 521 37,000 50 Climbing Miami Center
Sun 07:57:22 PM 29.2331 -77.1606 350° North 452 520 37,000 -50 Level Miami Center
Sun 07:58:22 PM 29.3500 -77.1822 351° North 441 507 36,900  Descending Miami Center
Sun 07:59:22 PM 29.4772 -77.2064 351° North 456 525 37,000 50 Climbing Miami Center
Sun 08:00:22 PM 29.6022 -77.2308 350° North 456 525 37,000  Level Miami Center
Sun 08:00:40 PM 29.6256 -77.2336 354° North 453 521 37,000 -77 Level Jacksonville Center
Sun 08:01:40 PM 29.7475 -77.2575 350° North 446 513 36,900 -50 Descending Jacksonville Center
Sun 08:02:40 PM 29.8761 -77.2836 350° North 446 513 36,900 50 Level Jacksonville Center
Sun 08:03:40 PM 30.0025 -77.3122 349° North 454 522 37,000 50 Climbing Jacksonville Center
Sun 08:04:40 PM 30.1181 -77.3294 353° North 440 506 37,000  Level Jacksonville Center
Sun 08:05:40 PM 30.2575 -77.3694 346° North 473 544 37,000  Level Jacksonville Center
Sun 08:06:40 PM 30.3775 -77.3914 351° North 442 509 37,000  Level Jacksonville Center
Sun 08:07:40 PM 30.4989 -77.4036 355° North 430 495 37,000  Level Jacksonville Center
Sun 08:08:40 PM 30.6208 -77.4256 351° North 430 495 37,000  Level Jacksonville Center
Sun 08:09:40 PM 30.7447 -77.4428 353° North 435 501 37,000  Level Jacksonville Center
Sun 08:10:40 PM 30.8653 -77.4792 345° North 440 506 37,000 -50 Level Jacksonville Center
Sun 08:11:40 PM 30.9872 -77.5014 351° North 440 506 36,900  Descending Jacksonville Center
Sun 08:12:40 PM 31.1078 -77.5333 347° North 440 506 37,000 50 Climbing Jacksonville Center
Sun 08:13:40 PM 31.2294 -77.5531 352° North 435 501 37,000  Level Jacksonville Center
Sun 08:14:40 PM 31.3567 -77.5458 North 435 501 37,000  Level Jacksonville Center
Sun 08:15:40 PM 31.4883 -77.5067 14° North 455 524 37,000  Level Jacksonville Center
Sun 08:16:40 PM 31.6164 -77.4747 12° North 467 537 37,000  Level Jacksonville Center
Sun 08:17:40 PM 31.7464 -77.4403 13° North 467 537 37,000  Level Jacksonville Center
Sun 08:18:40 PM 31.8767 -77.4106 11° North 467 537 37,000 -50 Level Jacksonville Center
Sun 08:19:40 PM 32.0069 -77.3783 12° North 467 537 36,900 -50 Descending Jacksonville Center
Sun 08:20:40 PM 32.1367 -77.3411 14° North 467 537 36,900  Level Jacksonville Center
Sun 08:21:40 PM 32.2644 -77.3064 13° North 472 543 36,900 50 Level Jacksonville Center
Sun 08:22:40 PM 32.3903 -77.2692 14° North 466 536 37,000 50 Climbing Jacksonville Center
Sun 08:23:40 PM 32.5219 -77.2289 14° North 472 543 37,000  Level Jacksonville Center
Sun 08:24:40 PM 32.6456 -77.1942 13° North 467 537 37,000 -50 Level Jacksonville Center
Sun 08:25:40 PM 32.7628 -77.1569 15° North 474 545 36,900  Descending Jacksonville Center
Sun 08:27:16 PM 32.9650 -77.0989 14° North 495 570 37,000 39 Climbing Washington Center
Sun 08:28:15 PM 33.0928 -77.0617 14° North 482 555 37,000 -50 Level Washington Center
Sun 08:29:16 PM 33.2225 -77.0192 15° North 477 549 36,900 -49 Descending Washington Center
Sun 08:30:18 PM 33.3522 -76.9817 14° North 472 543 36,900 50 Level Washington Center
Sun 08:31:17 PM 33.4819 -76.9414 15° North 472 543 37,000 50 Climbing Washington Center
Sun 08:32:17 PM 33.6161 -76.9011 14° North 472 543 37,000 -50 Level Washington Center
Sun 08:33:18 PM 33.7478 -76.8633 13° North 478 550 36,900 -298 Descending Washington Center
Sun 08:34:18 PM 33.8775 -76.8228 15° North 478 550 36,400 -458 Descending Washington Center
Sun 08:35:16 PM 34.0094 -76.7794 15° North 478 550 36,000 -500 Descending Washington Center
Sun 08:36:18 PM 34.1433 -76.7414 13° North 478 550 35,400 -492 Descending Washington Center
Sun 08:37:18 PM 34.2731 -76.7003 15° North 478 550 35,000 -203 Descending Washington Center
Sun 08:38:16 PM 34.4028 -76.6619 14° North 472 543 35,000  Level Washington Center
Sun 08:39:17 PM 34.5386 -76.6233 13° North 479 551 35,000  Level Washington Center
Sun 08:40:18 PM 34.6706 -76.5769 16° North 484 557 35,000 -50 Level Washington Center
Sun 08:41:16 PM 34.8086 -76.5356 14° North 494 568 34,900  Descending Washington Center
Sun 08:42:17 PM 34.9403 -76.4917 15° North 494 568 35,000  Climbing Washington Center
Sun 08:43:17 PM 35.0806 -76.4525 13° North 494 568 34,900 -50 Descending Washington Center
Sun 08:44:18 PM 35.2081 -76.4081 16° North 489 563 34,900 50 Level Washington Center
Sun 08:45:18 PM 35.3397 -76.3636 15° North 489 563 35,000  Climbing Washington Center
Sun 08:46:16 PM 35.4694 -76.3164 17° North 484 557 34,900 -50 Descending Washington Center
Sun 08:47:17 PM 35.6033 -76.2792 13° North 484 557 34,900 49 Level Washington Center
Sun 08:48:18 PM 35.7328 -76.2317 17° North 484 557 35,000 50 Climbing Washington Center
Sun 08:49:16 PM 35.8686 -76.1917 13° North 489 563 35,000  Level Washington Center
Sun 08:50:17 PM 36.0025 -76.1492 14° North 489 563 35,000  Level Washington Center
Sun 08:51:17 PM 36.1361 -76.1039 15° North 489 563 35,000 -50 Level Washington Center
Sun 08:52:18 PM 36.2719 -76.0608 14° North 489 563 34,900  Descending Washington Center
Sun 08:53:16 PM 36.4097 -76.0178 14° North 489 563 35,000  Climbing Washington Center
Sun 08:54:17 PM 36.5456 -75.9719 15° North 489 563 34,900  Descending Washington Center
Sun 08:55:15 PM 36.6772 -75.9286 15° North 489 563 35,000 50 Climbing Washington Center
Sun 08:56:16 PM 36.8108 -75.8825 15° North 489 563 35,000  Level Washington Center
Sun 08:57:17 PM 36.9403 -75.8389 15° North 489 563 35,000 -50 Level Washington Center
Sun 08:58:17 PM 37.0906 -75.7925 14° North 500 575 34,900 -50 Descending Washington Center
Sun 08:59:16 PM 37.2242 -75.7458 16° North 493 567 34,900  Level Washington Center
Sun 09:00:17 PM 37.3556 -75.7042 14° North 487 560 34,900 49 Level Washington Center
Sun 09:01:18 PM 37.4869 -75.6600 15° North 487 560 35,000 50 Climbing Washington Center
Sun 09:02:18 PM 37.6206 -75.6153 15° North 487 560 35,000  Level Washington Center
Sun 09:03:18 PM 37.7539 -75.5708 15° North 487 560 35,000 -51 Level Washington Center
Sun 09:04:15 PM 37.8917 -75.5233 15° North 492 566 34,900  Descending Washington Center
Sun 09:05:16 PM 38.0269 -75.4758 15° North 492 566 35,000 50 Climbing Washington Center
Sun 09:06:15 PM 38.1583 -75.4017 24° Northeast 498 573 35,000 -99 Level Washington Center
Sun 09:07:17 PM 38.2917 -75.3244 24° Northeast 511 588 34,800 -639 Descending Washington Center
Sun 09:08:17 PM 38.4186 -75.2314 30° Northeast 516 594 33,700 -958 Descending Washington Center
Sun 09:09:16 PM 38.5497 -75.1483 26° Northeast 521 600 32,900 -655 Descending Washington Center
Sun 09:10:16 PM 38.6786 -75.0653 27° Northeast 521 600 32,400 -595 Descending Washington Center
Sun 09:11:17 PM 38.8053 -74.9869 26° Northeast 510 587 31,700 -689 Descending Washington Center
Sun 09:12:18 PM 38.9319 -74.9006 28° Northeast 505 581 31,000 -1,059 Descending Washington Center
Sun 09:13:16 PM 39.0586 -74.8217 26° Northeast 500 575 29,600 -1,815 Descending Washington Center
Sun 09:14:17 PM 39.1706 -74.7161 36° Northeast 500 575 27,400 -1,983 Descending Washington Center
Sun 09:15:17 PM 39.2758 -74.6022 40° Northeast 495 570 25,600 -1,884 Descending Washington Center
Sun 09:16:18 PM 39.3772 -74.4933 40° Northeast 485 558 23,600 -2,110 Descending Washington Center
Sun 09:17:42 PM 39.5131 -74.3497 39° Northeast 483 556 20,500 -1,903 Descending New York Center
Sun 09:18:43 PM 39.6231 -74.2286 40° Northeast 477 549 19,000 -787 Descending New York Center
Sun 09:19:44 PM 39.7114 -74.1333 40° Northeast 464 534 18,900 -1,664 Descending New York Center
Sun 09:20:42 PM 39.8125 -74.0192 41° Northeast 443 510 15,700 -3,051 Descending New York Center
Sun 09:21:42 PM 39.9064 -73.9450 31° Northeast 416 479 12,900 -2,083 Descending New York Center
Sun 09:22:43 PM 39.9872 -73.8756 33° Northeast 371 427 11,500 -1,311 Descending New York Center
Sun 09:23:41 PM 40.0556 -73.8217 31° Northeast 328 377 10,300 -1,068 Descending New York Center
Sun 09:24:41 PM 40.1242 -73.7461 40° Northeast 311 358 9,400 -931 Descending New York Center
Sun 09:25:37 PM 40.1833 -73.6667 46° Northeast 294 338 8,500 -1,034 Descending New York TRACON
Sun 09:26:37 PM 40.2500 -73.6000 37° Northeast 277 319 7,400 -1,250 Descending New York TRACON
Sun 09:27:37 PM 40.3000 -73.5333 45° Northeast 276 318 6,000 -1,161 Descending New York TRACON
Sun 09:28:41 PM 40.3614 -73.4975 24° Northeast 253 291 5,000 -905 Descending New York Center
Sun 09:29:43 PM 40.4244 -73.4728 17° North 231 266 4,100 -879 Descending New York Center
Sun 09:30:37 PM 40.4667 -73.4833 349° North 184 212 3,300 -526 Descending New York TRACON
Sun 09:31:37 PM 40.5167 -73.5000 346° North 154 177 3,100 -100 Descending New York TRACON
Sun 09:32:37 PM 40.5500 -73.5333 323° Northwest 147 169 3,100  Level New York TRACON
Sun 09:33:37 PM 40.5667 -73.5833 294° West 148 170 3,100 -333 Level New York TRACON
Sun 09:34:43 PM 40.5833 -73.6333 294° West 136 157 2,400 -667 Descending New York TRACON
Sun 09:35:43 PM 40.6000 -73.6667 303° West 124 143 1,700 -750 Descending New York TRACON
Sun 09:36:43 PM 40.6167 -73.7167 294° West 128 147 900 -800 Descending New York TRACON
Sun 09:38:00 PM 40.6333 -73.7667 North  Level FlightAware Approximate
Sun 09:45:00 PM 40.6398 -73.7789 North  Level Estimated
Sun 09:46:00 PM 40.6398 -73.7789 North  Level Estimated

Login

Don't have an account? Register now (free) for customized features, flight alerts, and more!